Time;durP1;ratioP1;P1;durP2;ratioP2;P2;SDS_P1;SDS_P2;PMS_P1;PMS_P2;Temp;Humidity;BMP_temperature;BMP_pressure;BME280_temperature;BME280_humidity;BME280_pressure;Samples;Min_cycle;Max_cycle;Signal;HPM_P1;HPM_P2
2022/07/16 13:14:59;;;;;;;4.97;4.00;;;;;;;26.64;38.48;95124.66;6277094;27;103019;-53
2022/07/16 13:18:02;;;;;;;3.80;3.60;;;;;;;26.75;38.67;95127.69;6271002;27;104057;-53
2022/07/16 13:21:07;;;;;;;7.90;4.40;;;;;;;26.90;38.79;95126.25;6269959;27;104260;-52
2022/07/16 13:24:10;;;;;;;4.50;4.07;;;;;;;27.03;37.85;95115.16;6263126;27;103976;-53
2022/07/16 13:27:13;;;;;;;3.90;3.60;;;;;;;27.13;38.51;95119.31;6271129;27;103104;-53
2022/07/16 13:30:25;;;;;;;3.50;3.30;;;;;;;27.21;38.29;95115.72;6266869;27;103516;-55
2022/07/16 13:33:28;;;;;;;3.80;3.50;;;;;;;27.17;38.55;95122.91;6265934;27;103411;-56
2022/07/16 13:36:32;;;;;;;3.87;3.57;;;;;;;27.12;38.55;95117.75;6268727;27;104116;-55
2022/07/16 13:39:35;;;;;;;4.37;3.97;;;;;;;27.05;38.50;95120.19;6278664;27;103892;-56
2022/07/16 13:42:38;;;;;;;3.53;3.00;;;;;;;27.01;38.63;95119.31;6270191;27;103849;-56
2022/07/16 13:45:43;;;;;;;3.70;3.40;;;;;;;27.02;38.25;95116.28;6259191;27;104141;-56
2022/07/16 13:48:50;;;;;;;3.37;3.07;;;;;;;27.02;38.16;95118.97;6261974;27;103018;-55
2022/07/16 13:51:53;;;;;;;3.53;3.23;;;;;;;26.99;39.07;95116.19;6243955;27;103882;-56
2022/07/16 13:55:00;;;;;;;3.60;3.40;;;;;;;26.95;39.00;95120.66;6244731;27;103679;-55
2022/07/16 13:58:17;;;;;;;3.57;3.37;;;;;;;27.04;38.69;95124.78;6232907;27;104086;-55
2022/07/16 14:01:22;;;;;;;3.77;3.40;;;;;;;27.08;37.38;95123.03;6238603;27;104080;-55
2022/07/16 14:04:26;;;;;;;3.20;2.93;;;;;;;27.20;37.46;95116.84;6246157;27;104152;-55
2022/07/16 14:07:29;;;;;;;3.70;3.40;;;;;;;27.20;37.18;95122.22;6241961;27;104759;-55
2022/07/16 14:10:32;;;;;;;3.80;3.50;;;;;;;27.33;37.06;95120.34;6238048;27;104716;-55
2022/07/16 14:13:35;;;;;;;6.33;3.60;;;;;;;27.52;36.90;95111.69;6247535;27;103061;-55
2022/07/16 14:16:46;;;;;;;3.70;3.40;;;;;;;27.41;37.30;95116.78;6245184;27;103038;-55
2022/07/16 14:19:57;;;;;;;3.70;3.30;;;;;;;27.56;36.68;95115.28;6228346;27;104671;-55
2022/07/16 14:23:00;;;;;;;4.23;3.60;;;;;;;27.62;37.10;95101.25;6242963;27;104136;-57
2022/07/16 14:26:04;;;;;;;3.60;3.30;;;;;;;27.55;36.61;95108.31;6230438;27;103290;-57
2022/07/16 14:29:08;;;;;;;3.60;3.30;;;;;;;27.47;37.26;95107.34;6229519;27;103142;-55
2022/07/16 14:32:13;;;;;;;3.40;3.20;;;;;;;27.39;37.37;95106.34;6215784;28;104268;-56
2022/07/16 14:35:17;;;;;;;3.67;3.37;;;;;;;27.30;37.98;95104.91;6229014;27;103011;-56
2022/07/16 14:38:20;;;;;;;3.73;3.10;;;;;;;27.22;38.19;95100.38;6227219;27;103298;-56
2022/07/16 14:41:24;;;;;;;4.10;3.70;;;;;;;27.12;37.75;95102.41;6219961;28;103655;-54
2022/07/16 14:44:27;;;;;;;3.80;3.40;;;;;;;27.14;37.72;95105.56;6228026;27;104433;-54
2022/07/16 14:47:31;;;;;;;3.73;3.43;;;;;;;27.12;37.78;95102.41;6235444;27;103878;-54
2022/07/16 14:50:35;;;;;;;3.47;3.23;;;;;;;27.12;37.95;95104.31;6230103;27;103334;-53
2022/07/16 14:53:38;;;;;;;3.57;3.33;;;;;;;27.30;37.40;95099.53;6223580;27;103212;-53
2022/07/16 14:56:41;;;;;;;3.90;3.60;;;;;;;27.37;37.41;95105.88;6227102;28;104585;-56
2022/07/16 14:59:44;;;;;;;4.77;3.07;;;;;;;27.48;37.32;95094.69;6234507;27;104975;-56
2022/07/16 15:02:48;;;;;;;3.77;3.57;;;;;;;27.49;36.83;95090.88;6231990;27;103201;-56
2022/07/16 15:05:52;;;;;;;3.27;3.07;;;;;;;27.50;37.25;95095.91;6219192;27;103984;-53
2022/07/16 15:08:55;;;;;;;3.90;3.50;;;;;;;27.62;37.23;95100.47;6224407;28;103073;-54
2022/07/16 15:11:58;;;;;;;3.87;3.67;;;;;;;27.70;36.83;95097.66;6230020;28;104215;-53
2022/07/16 15:15:01;;;;;;;4.00;3.70;;;;;;;27.74;37.31;95100.47;6234034;27;103850;-53
2022/07/16 15:18:06;;;;;;;3.90;3.57;;;;;;;27.79;38.24;95092.16;6220769;27;102987;-54
2022/07/16 15:21:09;;;;;;;4.80;4.40;;;;;;;27.67;38.58;95092.16;6230802;28;104150;-54
2022/07/16 15:24:13;;;;;;;7.20;4.27;;;;;;;27.62;38.42;95100.47;6228603;28;103679;-54
2022/07/16 15:27:16;;;;;;;4.57;4.10;;;;;;;27.51;38.69;95088.63;6226225;28;103914;-56
2022/07/16 15:30:24;;;;;;;4.47;4.00;;;;;;;27.44;39.50;95100.75;6227165;27;104254;-56
2022/07/16 15:33:39;;;;;;;4.77;4.27;;;;;;;27.39;39.36;95103.66;6228864;27;103090;-56
2022/07/16 15:36:51;;;;;;;4.80;4.40;;;;;;;27.37;40.44;95107.78;6228920;27;103866;-57
2022/07/16 15:39:55;;;;;;;4.67;4.13;;;;;;;27.35;40.03;95101.97;6219327;27;105032;-57
2022/07/16 15:42:58;;;;;;;4.60;4.20;;;;;;;27.33;40.79;95109.59;6229522;28;103046;-57
2022/07/16 15:46:02;;;;;;;8.80;4.57;;;;;;;27.45;40.32;95121.13;6231926;27;103743;-57
2022/07/16 15:49:06;;;;;;;4.80;4.33;;;;;;;27.51;40.20;95126.25;6233796;27;104085;-57
2022/07/16 15:52:10;;;;;;;5.03;4.00;;;;;;;27.61;39.91;95129.28;6218620;28;104580;-57
2022/07/16 15:55:13;;;;;;;4.47;4.07;;;;;;;27.64;39.06;95130.50;6228486;27;103186;-56
2022/07/16 15:58:16;;;;;;;4.60;4.30;;;;;;;27.58;39.45;95127.28;6231566;28;103293;-56
2022/07/16 16:01:20;;;;;;;5.43;3.90;;;;;;;27.68;38.66;95128.69;6219918;27;103769;-58
2022/07/16 16:04:24;;;;;;;5.07;4.57;;;;;;;27.71;39.30;95125.31;6229063;28;104417;-52
2022/07/16 16:07:27;;;;;;;5.10;4.17;;;;;;;27.85;39.01;95131.13;6231107;28;103935;-52
2022/07/16 16:10:31;;;;;;;7.53;4.33;;;;;;;27.46;39.24;95138.03;6225491;27;103432;-52
2022/07/16 16:13:34;;;;;;;5.23;4.70;;;;;;;27.69;38.90;95144.47;6219665;27;102833;-53
2022/07/16 16:16:37;;;;;;;7.80;4.30;;;;;;;27.56;39.62;95139.50;6229579;27;103106;-55
2022/07/16 16:19:42;;;;;;;5.87;4.40;;;;;;;27.60;40.01;95140.38;6232360;28;104177;-53
2022/07/16 16:22:45;;;;;;;9.30;4.93;;;;;;;27.81;39.86;95149.06;6228440;28;103438;-53
2022/07/16 16:25:48;;;;;;;5.70;4.17;;;;;;;27.85;40.58;95151.84;6222465;27;104240;-52
2022/07/16 16:28:51;;;;;;;5.83;4.53;;;;;;;27.79;39.97;95143.25;6231580;27;103941;-53
2022/07/16 16:31:54;;;;;;;4.70;4.30;;;;;;;27.61;40.73;95136.56;6230331;28;104186;-53
2022/07/16 16:34:59;;;;;;;4.53;4.17;;;;;;;27.57;40.99;95141.06;6227503;27;104846;-53
2022/07/16 16:38:02;;;;;;;4.83;4.43;;;;;;;27.51;41.35;95137.00;6225875;27;103144;-54
2022/07/16 16:41:05;;;;;;;4.60;4.30;;;;;;;27.43;41.35;95144.09;6229431;27;103346;-53
2022/07/16 16:44:08;;;;;;;5.30;4.07;;;;;;;27.21;41.46;95133.75;6237035;27;102943;-52
2022/07/16 16:47:13;;;;;;;5.70;4.17;;;;;;;27.09;41.47;95127.28;6221158;27;104609;-51
2022/07/16 16:50:18;;;;;;;6.80;4.80;;;;;;;27.28;41.67;95137.50;6230029;27;104081;-54
2022/07/16 16:53:21;;;;;;;11.33;9.00;;;;;;;27.39;41.21;95135.94;6222820;28;103580;-53
2022/07/16 16:56:24;;;;;;;12.43;8.30;;;;;;;27.61;40.55;95142.72;6231326;28;103074;-53
2022/07/16 16:59:28;;;;;;;9.90;8.23;;;;;;;27.71;40.97;95141.44;6221989;27;103991;-53
2022/07/16 17:02:31;;;;;;;10.13;9.23;;;;;;;27.81;40.25;95146.38;6228346;27;103997;-53
2022/07/16 17:05:35;;;;;;;9.30;8.50;;;;;;;27.85;40.28;95138.41;6229013;28;103266;-54
2022/07/16 17:08:39;;;;;;;9.03;8.17;;;;;;;27.84;39.89;95151.06;6227850;28;102758;-55
2022/07/16 17:11:42;;;;;;;8.27;7.40;;;;;;;27.89;39.95;95152.75;6218097;27;103765;-55
2022/07/16 17:14:45;;;;;;;10.87;8.33;;;;;;;27.92;40.15;95147.50;6227192;27;103149;-52
2022/07/16 17:17:48;;;;;;;8.60;7.90;;;;;;;27.91;39.81;95147.84;6230447;27;104130;-53
2022/07/16 17:20:53;;;;;;;8.30;7.60;;;;;;;27.78;39.61;95152.44;6222079;27;104306;-54
2022/07/16 17:23:56;;;;;;;8.30;7.60;;;;;;;27.63;40.50;95161.19;6230336;28;104099;-54
2022/07/16 17:26:59;;;;;;;8.10;7.57;;;;;;;27.46;40.31;95162.22;6229922;28;104080;-53
2022/07/16 17:30:02;;;;;;;8.43;7.50;;;;;;;27.33;40.45;95156.06;6229380;27;104047;-55
2022/07/16 17:33:06;;;;;;;8.73;7.57;;;;;;;27.25;40.70;95159.63;6216485;28;103011;-54
2022/07/16 17:36:14;;;;;;;7.57;6.87;;;;;;;27.21;41.01;95157.94;6228101;27;103199;-53
2022/07/16 17:39:17;;;;;;;7.90;7.10;;;;;;;27.34;41.09;95165.69;6231602;27;102870;-56
2022/07/16 17:42:20;;;;;;;7.90;7.30;;;;;;;27.39;40.66;95168.19;6224692;27;103999;-56
2022/07/16 17:45:23;;;;;;;7.50;6.90;;;;;;;27.49;40.67;95166.91;6227042;27;103149;-55
2022/07/16 17:49:51;;;;;;;7.47;6.97;;;;;;;27.64;40.66;95160.06;6231403;27;104069;-54
2022/07/16 17:51:53;;;;;;;7.63;7.03;;;;;;;27.77;40.03;95172.38;6227989;27;103115;-53
2022/07/16 17:54:58;;;;;;;7.33;6.63;;;;;;;27.85;40.10;95181.44;6223493;27;103763;-53
2022/07/16 17:58:01;;;;;;;9.40;6.60;;;;;;;27.94;39.45;95182.91;6220369;28;104248;-54
2022/07/16 18:01:04;;;;;;;6.77;6.27;;;;;;;27.99;39.44;95188.06;6221728;27;104104;-54
2022/07/16 18:04:07;;;;;;;6.77;6.27;;;;;;;27.99;39.33;95185.34;6238528;27;104097;-54
2022/07/16 18:07:13;;;;;;;6.33;5.73;;;;;;;28.06;39.70;95192.88;6221452;27;103990;-54
2022/07/16 18:10:16;;;;;;;5.87;5.47;;;;;;;28.06;39.95;95192.88;6232541;27;103637;-54
2022/07/16 18:13:21;;;;;;;9.90;5.50;;;;;;;27.90;39.98;95198.19;6230253;27;102974;-54
2022/07/16 18:16:24;;;;;;;6.30;5.80;;;;;;;27.82;39.86;95196.34;6233458;27;104993;-53
2022/07/16 18:19:28;;;;;;;9.33;5.30;;;;;;;27.72;40.06;95203.00;6223413;27;104262;-53
2022/07/16 18:22:33;;;;;;;6.10;5.50;;;;;;;27.66;40.36;95207.00;6229961;27;103304;-53
2022/07/16 18:25:36;;;;;;;5.97;5.40;;;;;;;27.67;40.77;95210.47;6230418;27;104208;-54
2022/07/16 18:28:39;;;;;;;5.80;5.30;;;;;;;27.62;41.09;95210.72;6227847;28;104028;-54
2022/07/16 18:31:42;;;;;;;5.80;5.30;;;;;;;27.53;41.14;95220.78;6219794;28;104234;-54
2022/07/16 18:34:46;;;;;;;7.50;5.33;;;;;;;27.49;41.57;95223.38;6230398;27;104053;-53
2022/07/16 18:37:50;;;;;;;8.17;6.03;;;;;;;27.54;41.07;95225.03;6231359;27;103265;-53
2022/07/16 18:40:53;;;;;;;6.37;4.87;;;;;;;27.70;40.66;95223.25;6218160;27;105079;-54
2022/07/16 18:43:56;;;;;;;4.97;4.67;;;;;;;27.73;41.02;95230.66;6231749;27;103513;-54
2022/07/16 18:47:00;;;;;;;8.37;5.80;;;;;;;27.87;40.85;95228.41;6231945;27;104198;-54
2022/07/16 18:50:09;;;;;;;6.90;6.40;;;;;;;27.98;40.19;95237.59;6231822;27;103534;-54
2022/07/16 18:53:14;;;;;;;7.47;6.80;;;;;;;28.04;40.08;95246.22;6219753;27;105003;-54
2022/07/16 18:56:21;;;;;;;9.50;8.70;;;;;;;28.07;40.20;95250.94;6233122;27;103591;-54
2022/07/16 18:59:24;;;;;;;11.27;9.20;;;;;;;28.10;40.18;95260.25;6231168;27;103562;-54
2022/07/16 19:02:28;;;;;;;9.27;8.53;;;;;;;28.09;40.38;95253.28;6221765;27;103917;-53
2022/07/16 19:05:31;;;;;;;8.87;8.17;;;;;;;27.98;40.83;95259.13;6229453;27;104112;-54
2022/07/16 19:08:36;;;;;;;7.83;7.20;;;;;;;27.85;41.39;95264.81;6228915;27;104558;-54
2022/07/16 19:11:39;;;;;;;8.80;7.90;;;;;;;27.75;41.92;95272.22;6236438;27;103500;-54
2022/07/16 19:14:42;;;;;;;8.87;8.07;;;;;;;27.64;41.78;95278.38;6232786;27;103974;-54
2022/07/16 19:17:47;;;;;;;9.10;8.30;;;;;;;27.56;42.05;95277.38;6054969;27;103819;-53
2022/07/16 19:20:50;;;;;;;9.10;8.30;;;;;;;27.57;42.18;95275.47;6150127;28;103161;-54
2022/07/16 19:23:55;;;;;;;10.50;9.50;;;;;;;27.50;42.40;95281.41;6166013;28;103985;-53
2022/07/16 19:26:58;;;;;;;12.20;11.23;;;;;;;27.46;42.75;95280.50;6172827;28;103874;-54
2022/07/16 19:30:01;;;;;;;14.07;12.97;;;;;;;27.50;42.23;95286.00;6155777;28;104037;-54
2022/07/16 19:33:04;;;;;;;16.73;15.07;;;;;;;27.58;41.74;95293.97;6155046;28;104154;-54
2022/07/16 19:36:09;;;;;;;16.90;15.47;;;;;;;27.68;41.84;95290.03;6166894;28;103737;-55
2022/07/16 19:39:14;;;;;;;15.80;14.40;;;;;;;27.76;41.43;95292.63;6151924;28;104206;-54
2022/07/16 19:42:17;;;;;;;14.90;13.50;;;;;;;27.87;41.92;95294.88;6154091;28;103297;-54
2022/07/16 19:45:20;;;;;;;14.47;13.23;;;;;;;27.92;41.60;95282.00;6178095;28;104095;-54
2022/07/16 19:48:24;;;;;;;13.87;12.87;;;;;;;27.98;41.05;95290.63;6149313;28;104245;-54
2022/07/16 19:51:27;;;;;;;12.77;11.80;;;;;;;27.99;41.08;95292.97;6157986;28;104302;-55
2022/07/16 19:54:32;;;;;;;14.10;12.83;;;;;;;27.91;41.30;95291.19;6158564;28;104274;-54
2022/07/16 20:00:56;;;;;;;13.43;12.23;;;;;;;27.59;41.95;95298.22;6141617;28;103332;-54
2022/07/16 20:04:00;;;;;;;14.10;12.90;;;;;;;27.52;42.32;95299.88;6151501;28;103430;-55
2022/07/16 20:07:03;;;;;;;15.00;13.87;;;;;;;27.45;42.61;95309.28;6160902;28;103452;-55
2022/07/16 20:10:08;;;;;;;16.00;14.70;;;;;;;27.42;42.78;95301.13;6172823;28;103271;-54
2022/07/16 20:13:12;;;;;;;20.17;18.30;;;;;;;27.40;42.61;95314.09;6155270;28;104061;-54
2022/07/16 20:16:15;;;;;;;18.67;17.10;;;;;;;27.35;43.03;95317.78;6146951;28;103357;-54
2022/07/16 20:19:25;;;;;;;16.17;14.90;;;;;;;27.31;43.41;95316.88;6160763;28;104283;-53
2022/07/16 20:22:48;;;;;;;17.67;16.10;;;;;;;27.24;43.12;95318.50;6166352;28;105215;-52
2022/07/16 20:25:52;;;;;;;16.10;14.63;;;;;;;27.21;41.80;95328.00;6169126;28;103935;-53
2022/07/16 20:28:56;;;;;;;18.27;16.50;;;;;;;27.22;43.01;95324.22;6159432;28;103098;-52
2022/07/16 20:32:00;;;;;;;24.87;18.37;;;;;;;27.24;41.60;95330.03;6160949;28;104404;-57
2022/07/16 20:35:05;;;;;;;20.13;18.33;;;;;;;27.28;42.48;95328.28;6151056;28;103136;-57
2022/07/16 20:38:08;;;;;;;19.10;17.50;;;;;;;27.40;42.26;95328.31;6154818;28;104021;-57
2022/07/16 20:41:13;;;;;;;17.07;15.67;;;;;;;27.48;41.60;95339.31;6158319;28;103386;-57
2022/07/16 20:44:16;;;;;;;15.87;14.30;;;;;;;27.49;42.38;95338.19;6165622;28;102956;-58
2022/07/16 20:47:19;;;;;;;13.43;12.40;;;;;;;27.53;41.98;95347.16;6151213;28;103715;-57
2022/07/16 20:50:22;;;;;;;14.60;13.30;;;;;;;27.50;41.80;95342.44;6160618;28;102869;-58
2022/07/16 20:53:26;;;;;;;13.30;12.00;;;;;;;27.49;42.08;95348.94;6166738;28;103913;-59
2022/07/16 20:56:31;;;;;;;10.63;9.53;;;;;;;27.45;42.12;95351.50;6177855;28;103259;-57
2022/07/16 20:59:35;;;;;;;9.87;9.07;;;;;;;27.44;42.17;95356.09;6186009;28;105070;-58
2022/07/16 21:02:41;;;;;;;13.60;12.53;;;;;;;27.46;41.63;95351.19;6167402;28;104245;-58
2022/07/16 21:05:45;;;;;;;10.23;9.43;;;;;;;27.38;41.33;95354.72;6159222;28;104089;-58
2022/07/16 21:08:48;;;;;;;11.47;10.57;;;;;;;27.37;41.27;95352.38;6163480;28;104572;-58
2022/07/16 21:11:55;;;;;;;9.23;8.43;;;;;;;27.37;41.42;95355.84;6182009;28;103229;-58
2022/07/16 21:14:58;;;;;;;9.17;8.33;;;;;;;27.43;41.13;95361.81;6136760;28;103343;-58
2022/07/16 21:18:01;;;;;;;11.63;9.10;;;;;;;27.35;41.50;95366.16;6110617;28;103053;-57
2022/07/16 21:21:05;;;;;;;8.77;7.97;;;;;;;27.19;41.53;95365.16;6119730;28;104142;-58
2022/07/16 21:24:08;;;;;;;8.57;7.97;;;;;;;27.04;41.96;95374.63;6119059;28;104267;-58
2022/07/16 21:27:13;;;;;;;8.47;7.77;;;;;;;26.89;42.29;95377.16;6112874;28;103302;-58
2022/07/16 21:30:16;;;;;;;8.30;7.60;;;;;;;26.82;42.30;95381.13;6106265;28;103426;-58
2022/07/16 21:33:20;;;;;;;10.60;9.70;;;;;;;26.77;42.63;95381.34;6130043;28;103346;-58
2022/07/16 21:36:23;;;;;;;10.83;10.07;;;;;;;26.73;42.35;95377.75;6125408;28;102958;-58
2022/07/16 21:39:27;;;;;;;12.10;10.93;;;;;;;26.69;42.62;95382.16;6118854;28;104276;-58
2022/07/16 21:42:31;;;;;;;11.10;10.07;;;;;;;26.84;42.40;95381.59;6127403;28;104094;-58
2022/07/16 21:45:34;;;;;;;14.07;12.97;;;;;;;27.00;42.35;95391.72;6138145;28;104112;-58
2022/07/16 21:48:37;;;;;;;14.70;13.60;;;;;;;27.05;42.33;95388.84;6117299;28;102990;-57
2022/07/16 21:51:40;;;;;;;11.07;10.27;;;;;;;27.13;41.38;95388.00;6131369;28;103129;-57
2022/07/16 21:54:44;;;;;;;10.27;9.20;;;;;;;27.16;41.39;95390.81;6123300;28;103873;-58
2022/07/16 21:57:48;;;;;;;9.70;9.03;;;;;;;27.17;42.00;95394.28;6109092;28;103097;-58
2022/07/16 22:00:51;;;;;;;10.60;9.80;;;;;;;27.25;41.55;95390.75;6114293;28;103265;-58
2022/07/16 22:03:55;;;;;;;9.20;8.47;;;;;;;27.33;40.72;95395.25;6130952;28;104223;-56
2022/07/16 22:07:18;;;;;;;8.47;7.97;;;;;;;27.25;41.08;95403.38;6135185;28;103063;-57
2022/07/16 22:10:21;;;;;;;11.10;10.30;;;;;;;27.06;41.23;95395.81;6123680;28;102878;-57
2022/07/16 22:13:26;;;;;;;10.00;9.10;;;;;;;26.97;41.94;95397.78;6161955;28;104215;-56
2022/07/16 22:16:29;;;;;;;9.27;8.57;;;;;;;26.78;41.87;95399.00;6155782;28;102876;-57
2022/07/16 22:22:54;;;;;;;11.03;10.13;;;;;;;26.69;42.39;95411.69;6164125;28;104150;-57
2022/07/16 22:25:57;;;;;;;9.33;8.50;;;;;;;26.60;42.25;95420.91;6164013;28;103381;-57
2022/07/16 22:29:02;;;;;;;8.20;7.60;;;;;;;26.57;42.25;95419.66;6165046;28;103161;-57
2022/07/16 22:32:05;;;;;;;8.57;7.87;;;;;;;26.66;42.41;95412.34;6186587;28;103047;-57
2022/07/16 22:35:09;;;;;;;8.20;7.60;;;;;;;26.75;42.40;95418.47;6173542;28;103071;-57
2022/07/16 22:38:12;;;;;;;9.10;8.40;;;;;;;26.84;41.87;95416.50;6158740;28;103158;-56
2022/07/16 22:41:16;;;;;;;8.43;7.73;;;;;;;26.90;41.48;95417.09;6167230;28;103273;-57
2022/07/16 22:44:20;;;;;;;7.30;6.77;;;;;;;26.93;41.45;95416.44;6186186;28;104502;-57
2022/07/16 22:47:23;;;;;;;7.47;6.87;;;;;;;26.98;41.05;95418.94;6175113;28;104074;-57
2022/07/16 22:50:27;;;;;;;7.23;6.70;;;;;;;27.01;41.67;95415.59;6169061;28;104126;-57
2022/07/16 22:53:31;;;;;;;7.07;6.57;;;;;;;26.99;41.25;95422.41;6183820;28;103946;-57
2022/07/16 22:56:35;;;;;;;6.40;6.00;;;;;;;26.81;41.82;95416.38;6162991;28;102882;-57
2022/07/16 22:59:39;;;;;;;6.33;5.70;;;;;;;26.70;41.46;95424.00;6163448;28;103533;-58
2022/07/16 23:02:43;;;;;;;6.17;5.60;;;;;;;26.63;41.72;95431.00;6153662;28;104083;-58
2022/07/16 23:05:47;;;;;;;6.97;6.37;;;;;;;26.57;41.94;95416.97;6163026;28;103221;-57
2022/07/16 23:08:50;;;;;;;6.50;5.97;;;;;;;26.50;42.18;95417.47;6168856;28;104715;-57
2022/07/16 23:11:53;;;;;;;5.80;5.40;;;;;;;26.47;42.41;95420.81;6160242;28;103198;-58
2022/07/16 23:14:58;;;;;;;6.10;5.70;;;;;;;26.44;42.47;95418.00;6154778;28;103248;-59
2022/07/16 23:18:01;;;;;;;6.57;6.17;;;;;;;26.39;42.29;95412.81;6167969;28;103911;-57
2022/07/16 23:21:04;;;;;;;6.73;6.33;;;;;;;26.47;41.96;95417.34;6186226;28;102936;-57
2022/07/16 23:24:07;;;;;;;6.50;5.90;;;;;;;26.63;42.18;95415.69;6173940;28;103237;-57
2022/07/16 23:27:10;;;;;;;6.23;5.80;;;;;;;26.75;41.85;95415.00;6186359;28;103198;-59
2022/07/16 23:30:15;;;;;;;6.63;6.13;;;;;;;26.83;41.90;95417.63;6164836;28;103056;-58
2022/07/16 23:33:18;;;;;;;6.27;5.80;;;;;;;26.93;41.22;95426.41;6164317;28;104298;-58
2022/07/16 23:36:21;;;;;;;6.23;5.83;;;;;;;26.95;41.85;95429.53;6174218;28;105276;-58
2022/07/16 23:39:24;;;;;;;5.90;5.47;;;;;;;26.94;41.48;95433.34;6171130;28;103211;-57
2022/07/16 23:42:27;;;;;;;6.47;5.77;;;;;;;26.91;41.64;95437.47;6180244;28;104134;-57
2022/07/16 23:45:35;;;;;;;5.40;5.00;;;;;;;26.82;41.71;95426.00;6178069;28;104212;-57
2022/07/16 23:48:38;;;;;;;5.57;5.20;;;;;;;26.67;41.89;95440.78;6152497;28;102903;-57
2022/07/16 23:51:42;;;;;;;6.47;6.07;;;;;;;26.57;41.75;95438.47;6162609;28;103989;-57
2022/07/16 23:54:45;;;;;;;5.80;5.40;;;;;;;26.45;42.12;95431.09;6175951;28;103348;-58
2022/07/16 23:57:49;;;;;;;6.40;5.93;;;;;;;26.36;42.60;95433.03;6175479;28;103215;-56
